SCC: Birmingham practice two times

Pos Num Class Team Time Gap To 1st Speed --- --- ----- ------------------------------ ---------- ------- ------- ------- 1. 99 GS Anchor Racing 1:38.572 84.000 2. 05...

Pos Num Class Team                                 Time     Gap  To 1st   Speed
--- --- ----- ------------------------------ ---------- ------- ------- -------
 1.  99 GS    Anchor Racing                    1:38.572                  84.000
 2.  05 GS    Multimatic Motorsports           1:38.964   0.392   0.392  83.667
 3.  35 GS    Schuitemaker Motorsports         1:39.051   0.087   0.479  83.593
 4.  60 GS    Finlay Motorsports               1:39.063   0.012   0.491  83.583
 5.  96 GS    Turner Motorsport                1:39.429   0.366   0.857  83.276
 6.  16 GS    Zoom Motorsports                 1:39.676   0.247   1.104  83.069
 7.  55 GS    Multimatic Motorsports           1:39.680   0.004   1.108  83.066
 8.  47 GS    TF Racing                        1:39.686   0.006   1.114  83.061
 9.  07 GS    Powell Motorsport                1:39.753   0.067   1.181  83.005
10.  21 GS    Bodymotion Racing                1:39.962   0.209   1.390  82.831
11.  11 GS    Powell Motorsport                1:40.008   0.046   1.436  82.793
12.  81 GS    Synergy Racing                   1:40.090   0.082   1.518  82.726
13.   7 GS    Power Racing Team                1:40.449   0.359   1.877  82.430
14.  17 GS    Doncaster Racing                 1:40.698   0.249   2.126  82.226
15.  89 GS    LNS Motorsports                  1:40.735   0.037   2.163  82.196
16.  93 GS    Anchor Racing                    1:40.889   0.154   2.317  82.070
17.  28 GS    Race Prep Motorsports            1:41.154   0.265   2.582  81.855
18.  91 GS    Fiorano Racing                   1:41.658   0.504   3.086  81.450
19.  01 ST    Georgian Bay Motorsports         1:43.266   1.608   4.694  80.181
20.  64 ST    Matt Connolly Motorsports        1:43.272   0.006   4.700  80.177
21.  27 ST    Bill Fenton Motorsports          1:43.607   0.335   5.035  79.917
22.  10 GS    Champion Motorsports             1:43.770   0.163   5.198  79.792
23.  88 GS    Knobel Racing                    1:43.815   0.045   5.243  79.757
24.  69 GS    Krohn Racing/TRG                 1:44.131   0.316   5.559  79.515
25.  00 ST    Georgian Bay Motorsports         1:44.544   0.413   5.972  79.201
26.  38 GS    BGB Motorsports                  1:44.664   0.120   6.092  79.110
27.  12 ST    TC Kline Racing                  1:44.759   0.095   6.187  79.039
28.  68 ST    SpeedSource                      1:44.826   0.067   6.254  78.988
29.  71 ST    TC Kline Racing                  1:44.956   0.130   6.384  78.890
30.  06 ST    Compass360/Racing                1:45.084   0.128   6.512  78.794
31.  66 ST    SpeedSource                      1:45.295   0.211   6.723  78.636
32.  29 ST    Bill Fenton Motorsports          1:45.399   0.104   6.827  78.559
33.  45 GS    Autometrics Motorsports          1:45.623   0.224   7.051  78.392
34.  98 ST    Stewart Motorsports              1:45.789   0.166   7.217  78.269
35.  39 ST    Matt Connolly Motorsports        1:45.846   0.057   7.274  78.227
36.  58 GS    Rehagen Racing                   1:45.922   0.076   7.350  78.171
37.  72 ST    Anchor Racing                    1:46.416   0.494   7.844  77.808
38.  20 ST    Nuzzo Motorsports                1:47.184   0.768   8.612  77.250
39.  50 ST    Southpaw Racing                  1:48.020   0.836   9.448  76.652
40.  84 GS    DWW/GorillaRacing.com            1:48.458   0.438   9.886  76.343
41.  94 ST    Radial Motorsports               1:48.489   0.031   9.917  76.321
42.   4 GS    Blackforest Motorsports          1:48.519   0.030   9.947  76.300
43.  43 GS    Team Sahlen                      1:51.860   3.341  13.288  74.021
44.  36 ST    Compass360/Racing                1:54.081   2.221  15.509  72.580
45.  67 ST    SpeedSource                      1:54.526   0.445  15.954  72.298
46.  63 GS    Team RPM                         1:55.332   0.806  16.760  71.793
47.  25 ST    HBAR Motorsports                 1:58.794   3.462  20.222  69.700
48.  40 GS    Team Sahlen                      2:04.100   5.306  25.528  66.720
49.  90 GS    Automatic Racing                 2:25.673  21.573  47.101  56.840
50.   5 GS    Blackforest Motorsports           No Time
51.   6 GS    Zoom Motorsports                  No Time
52.  13 GS    Unitech Racing                    No Time
53.  32 ST    Franklin American                 No Time
54.  44 GS    Team Sahlen                       No Time
55.  46 ST    Franklin American Mortgage        No Time
56.  52 GS    Rehagen Racing                    No Time
57.  57 ST    Baglieracing                      No Time
58.  70 ST    SpeedSource                       No Time
59.  73 GS    RTG Motorsports                   No Time
60.  95 ST    Turner Motorsports                No Time
61.  97 ST    Turner Motorsports                No Time
62.  09 GS    Automatic Racing                  No Time
63.  92 GS    Anchor Racing                     No Time

Be part of something big

Write a comment
Show comments
About this article
Series Grand-Am
Drivers Matt Connolly , Bill Fenton
Teams Krohn Racing , Autometrics Motorsports , Rehagen Racing , Turner Motorsport , Team Sahlen , Multimatic Motorsports , Automatic Racing , Bodymotion Racing , SpeedSource